Check out our new PWSWeather beta!
PWSweather.com
Personal Weather Stations
Station Observations
BZA01
Southern Palatinate, Bad BergzabernDE 76887

Southern PalatinateBad BergzabernDE 76887

Lat: 49.096, Lon: 8

Elevation: 640

Station Type: Davis VP2+

Latest ConditionsUpdated 11:27:02 AM GMT+01:01 Wednesday, Feb 26, 2020
Currently Today's Max Today's Min Today's Average
Temperature 39.9°F4.4°C 40.8°F4.9°C 35.8°F2.1°C 38.7°F3.7°C
Dew Point 33.6°F0.9°C 36.9°F2.7°C 32.5°F0.3°C 34.2°F1.2°C
Winds 4.9 mph S7.9 kmh S 12.1 mph -19.5 kmh - - 7.8 mph 12.6 kmh
Wind Gusts 2.9 mph4.7 kmh 17.9 mph28.8 kmh - -
Humidity 78% 91% 77% 84%
Pressure 29.57 in1001.4 mb 29.57 in1001.4 mb 29.48 in998.3 mb -
Precipitation - 0.09 in2.3 mm - -
Hour Temp Dew Point Humidity Winds Wind Gusts Pressure Precip Precip Rate Daily Precip Total
11:27 AM 39.9°F4.4°C 33.6°F0.9°C 78% 4.9 mph S7.9 kmh S 2.9 mph4.7 kmh 29.57 in1001.4 mb - 0.00 in0.0 mm 0.09 in2.3 mm
11:22 AM 39.7°F4.3°C 34.3°F1.3°C 81% 6.0 mph W9.7 kmh W 6.9 mph11.1 kmh 29.57 in1001.4 mb - 0.00 in0.0 mm 0.09 in2.3 mm
11:17 AM 39.4°F4.1°C 34.0°F1.1°C 81% 6.0 mph WSW9.7 kmh WSW 10.1 mph16.3 kmh 29.57 in1001.4 mb - 0.00 in0.0 mm 0.09 in2.3 mm
11:12 AM 38.7°F3.7°C 33.3°F0.7°C 81% 6.9 mph WNW11.1 kmh WNW 2.0 mph3.2 kmh 29.56 in1001.0 mb - 0.00 in0.0 mm 0.09 in2.3 mm
11:07 AM 38.5°F3.6°C 33.1°F0.6°C 81% 8.1 mph W13.0 kmh W 2.9 mph4.7 kmh 29.56 in1001.0 mb - 0.00 in0.0 mm 0.09 in2.3 mm
11:02 AM 38.5°F3.6°C 33.1°F0.6°C 81% 8.9 mph WSW14.3 kmh WSW 8.9 mph14.3 kmh 29.55 in1000.7 mb - 0.00 in0.0 mm 0.09 in2.3 mm
10:57 AM 38.5°F3.6°C 33.4°F0.8°C 82% 8.9 mph NW14.3 kmh NW 4.9 mph7.9 kmh 29.56 in1001.0 mb - 0.00 in0.0 mm 0.09 in2.3 mm
10:52 AM 38.5°F3.6°C 33.1°F0.6°C 81% 8.9 mph NW14.3 kmh NW 6.9 mph11.1 kmh 29.55 in1000.7 mb - 0.00 in0.0 mm 0.09 in2.3 mm
10:47 AM 38.5°F3.6°C 33.1°F0.6°C 81% 10.1 mph W16.3 kmh W 8.9 mph14.3 kmh 29.55 in1000.7 mb - 0.00 in0.0 mm 0.09 in2.3 mm
10:42 AM 38.1°F3.4°C 33.1°F0.6°C 82% 11.0 mph WSW17.7 kmh WSW 15.0 mph24.1 kmh 29.54 in1000.3 mb - 0.00 in0.0 mm 0.09 in2.3 mm
10:37 AM 38.1°F3.4°C 33.1°F0.6°C 82% 11.0 mph WNW17.7 kmh WNW 13.0 mph20.9 kmh 29.54 in1000.3 mb - 0.00 in0.0 mm 0.09 in2.3 mm
10:32 AM 38.3°F3.5°C 32.9°F0.5°C 81% 8.9 mph W14.3 kmh W 12.1 mph19.5 kmh 29.54 in1000.3 mb - 0.00 in0.0 mm 0.09 in2.3 mm
10:27 AM 38.1°F3.4°C 33.4°F0.8°C 83% 8.1 mph W13.0 kmh W 8.1 mph13.0 kmh 29.53 in1000.0 mb - 0.00 in0.0 mm 0.09 in2.3 mm
10:22 AM 37.9°F3.3°C 33.3°F0.7°C 83% 8.1 mph WNW13.0 kmh WNW 4.9 mph7.9 kmh 29.53 in1000.0 mb - 0.00 in0.0 mm 0.09 in2.3 mm
10:17 AM 37.8°F3.2°C 33.4°F0.8°C 84% 6.9 mph WSW11.1 kmh WSW 13.0 mph20.9 kmh 29.53 in1000.0 mb - 0.00 in0.0 mm 0.09 in2.3 mm
10:12 AM 37.6°F3.1°C 33.3°F0.7°C 84% 6.9 mph W11.1 kmh W 6.9 mph11.1 kmh 29.53 in1000.0 mb - 0.00 in0.0 mm 0.09 in2.3 mm
10:07 AM 37.6°F3.1°C 33.4°F0.8°C 85% 6.9 mph W11.1 kmh W 4.0 mph6.4 kmh 29.53 in1000.0 mb - 0.00 in0.0 mm 0.09 in2.3 mm
10:02 AM 37.6°F3.1°C 33.3°F0.7°C 84% 8.1 mph WNW13.0 kmh WNW 6.9 mph11.1 kmh 29.53 in1000.0 mb - 0.00 in0.0 mm 0.09 in2.3 mm
09:57 AM 37.8°F3.2°C 33.6°F0.9°C 85% 8.9 mph WNW14.3 kmh WNW 4.9 mph7.9 kmh 29.53 in1000.0 mb - 0.00 in0.0 mm 0.09 in2.3 mm
09:52 AM 37.6°F3.1°C 33.4°F0.8°C 85% 10.1 mph W16.3 kmh W 10.1 mph16.3 kmh 29.52 in999.7 mb - 0.00 in0.0 mm 0.09 in2.3 mm
09:47 AM 37.6°F3.1°C 33.8°F1.0°C 86% 10.1 mph W16.3 kmh W 12.1 mph19.5 kmh 29.52 in999.7 mb - 0.00 in0.0 mm 0.09 in2.3 mm
09:42 AM 37.6°F3.1°C 33.8°F1.0°C 86% 8.1 mph WNW13.0 kmh WNW 8.9 mph14.3 kmh 29.52 in999.7 mb - 0.00 in0.0 mm 0.09 in2.3 mm
09:37 AM 37.6°F3.1°C 34.0°F1.1°C 87% 6.9 mph W11.1 kmh W 6.9 mph11.1 kmh 29.52 in999.7 mb - 0.00 in0.0 mm 0.09 in2.3 mm
09:32 AM 37.4°F3.0°C 33.8°F1.0°C 87% 8.9 mph W14.3 kmh W 6.0 mph9.7 kmh 29.52 in999.7 mb - 0.00 in0.0 mm 0.09 in2.3 mm
09:27 AM 37.2°F2.9°C 33.8°F1.0°C 87% 10.1 mph NW16.3 kmh NW 10.1 mph16.3 kmh 29.52 in999.7 mb - 0.00 in0.0 mm 0.09 in2.3 mm
09:22 AM 37.2°F2.9°C 34.0°F1.1°C 88% 10.1 mph SW16.3 kmh SW 14.1 mph22.7 kmh 29.51 in999.3 mb - 0.00 in0.0 mm 0.09 in2.3 mm
09:17 AM 37.0°F2.8°C 34.2°F1.2°C 89% 8.9 mph W14.3 kmh W 6.9 mph11.1 kmh 29.51 in999.3 mb - 0.00 in0.0 mm 0.09 in2.3 mm
09:12 AM 36.7°F2.6°C 34.3°F1.3°C 91% 6.0 mph WSW9.7 kmh WSW 6.9 mph11.1 kmh 29.52 in999.7 mb - 0.00 in0.0 mm 0.09 in2.3 mm
09:07 AM 36.1°F2.3°C 33.8°F1.0°C 91% 4.9 mph SW7.9 kmh SW 6.0 mph9.7 kmh 29.52 in999.7 mb - 0.00 in0.0 mm 0.09 in2.3 mm
09:02 AM 35.8°F2.1°C 33.4°F0.8°C 91% 4.9 mph WSW7.9 kmh WSW 10.1 mph16.3 kmh 29.52 in999.7 mb - 0.00 in0.0 mm 0.09 in2.3 mm
08:57 AM 36.0°F2.2°C 33.3°F0.7°C 90% 6.0 mph W9.7 kmh W 4.0 mph6.4 kmh 29.52 in999.7 mb - 0.00 in0.0 mm 0.08 in2.0 mm
08:52 AM 36.3°F2.4°C 33.4°F0.8°C 89% 6.9 mph W11.1 kmh W 4.0 mph6.4 kmh 29.51 in999.3 mb - 0.00 in0.0 mm 0.08 in2.0 mm
08:47 AM 36.7°F2.6°C 33.8°F1.0°C 89% 6.9 mph SW11.1 kmh SW 4.9 mph7.9 kmh 29.51 in999.3 mb - 0.00 in0.0 mm 0.08 in2.0 mm
08:42 AM 37.0°F2.8°C 33.8°F1.0°C 88% 6.9 mph WSW11.1 kmh WSW 8.1 mph13.0 kmh 29.51 in999.3 mb - 0.00 in0.0 mm 0.08 in2.0 mm
08:37 AM 37.2°F2.9°C 33.8°F1.0°C 87% 6.9 mph WSW11.1 kmh WSW 2.9 mph4.7 kmh 29.51 in999.3 mb - 0.00 in0.0 mm 0.08 in2.0 mm
08:32 AM 37.9°F3.3°C 33.8°F1.0°C 85% 6.0 mph W9.7 kmh W 4.0 mph6.4 kmh 29.51 in999.3 mb - 0.00 in0.0 mm 0.07 in1.8 mm
08:27 AM 38.5°F3.6°C 34.2°F1.2°C 84% 6.0 mph W9.7 kmh W 6.9 mph11.1 kmh 29.51 in999.3 mb - 0.00 in0.0 mm 0.07 in1.8 mm
08:22 AM 38.7°F3.7°C 34.0°F1.1°C 83% 6.0 mph WSW9.7 kmh WSW 6.9 mph11.1 kmh 29.51 in999.3 mb - 0.00 in0.0 mm 0.07 in1.8 mm
08:17 AM 38.5°F3.6°C 33.8°F1.0°C 83% 6.0 mph W9.7 kmh W 6.0 mph9.7 kmh 29.51 in999.3 mb - 0.00 in0.0 mm 0.07 in1.8 mm
08:12 AM 38.5°F3.6°C 34.2°F1.2°C 84% 6.0 mph W9.7 kmh W 4.0 mph6.4 kmh 29.51 in999.3 mb - 0.00 in0.0 mm 0.07 in1.8 mm
08:07 AM 38.5°F3.6°C 34.2°F1.2°C 84% 6.0 mph WSW9.7 kmh WSW 8.1 mph13.0 kmh 29.51 in999.3 mb - 0.00 in0.0 mm 0.07 in1.8 mm
08:02 AM 38.1°F3.4°C 34.0°F1.1°C 85% 6.0 mph W9.7 kmh W 6.9 mph11.1 kmh 29.51 in999.3 mb - 0.00 in0.0 mm 0.07 in1.8 mm
07:57 AM 38.1°F3.4°C 34.0°F1.1°C 85% 6.0 mph WSW9.7 kmh WSW 4.0 mph6.4 kmh 29.51 in999.3 mb - 0.00 in0.0 mm 0.07 in1.8 mm
07:52 AM 38.1°F3.4°C 33.8°F1.0°C 84% 6.0 mph WSW9.7 kmh WSW 4.0 mph6.4 kmh 29.50 in999.0 mb - 0.00 in0.0 mm 0.07 in1.8 mm
07:47 AM 38.1°F3.4°C 33.4°F0.8°C 83% 6.0 mph WSW9.7 kmh WSW 6.9 mph11.1 kmh 29.51 in999.3 mb - 0.00 in0.0 mm 0.07 in1.8 mm
07:42 AM 38.5°F3.6°C 33.4°F0.8°C 82% 6.0 mph SW9.7 kmh SW 8.9 mph14.3 kmh 29.50 in999.0 mb - 0.00 in0.0 mm 0.07 in1.8 mm
07:37 AM 38.5°F3.6°C 33.1°F0.6°C 81% 6.0 mph WSW9.7 kmh WSW 12.1 mph19.5 kmh 29.50 in999.0 mb - 0.00 in0.0 mm 0.07 in1.8 mm
07:32 AM 38.7°F3.7°C 33.3°F0.7°C 81% 6.0 mph W9.7 kmh W 6.9 mph11.1 kmh 29.50 in999.0 mb - 0.00 in0.0 mm 0.07 in1.8 mm
07:27 AM 38.8°F3.8°C 32.9°F0.5°C 79% 6.9 mph W11.1 kmh W 8.1 mph13.0 kmh 29.50 in999.0 mb - 0.00 in0.0 mm 0.07 in1.8 mm
07:22 AM 38.8°F3.8°C 32.5°F0.3°C 78% 8.1 mph W13.0 kmh W 6.9 mph11.1 kmh 29.50 in999.0 mb - 0.00 in0.0 mm 0.07 in1.8 mm
07:17 AM 38.7°F3.7°C 32.7°F0.4°C 79% 6.9 mph W11.1 kmh W 10.1 mph16.3 kmh 29.50 in999.0 mb - 0.00 in0.0 mm 0.07 in1.8 mm
07:12 AM 38.8°F3.8°C 32.9°F0.5°C 79% 6.9 mph W11.1 kmh W 8.9 mph14.3 kmh 29.50 in999.0 mb - 0.00 in0.0 mm 0.07 in1.8 mm
07:07 AM 38.8°F3.8°C 32.9°F0.5°C 79% 6.0 mph SW9.7 kmh SW 8.9 mph14.3 kmh 29.50 in999.0 mb - 0.00 in0.0 mm 0.07 in1.8 mm
07:02 AM 38.8°F3.8°C 32.9°F0.5°C 79% 6.9 mph W11.1 kmh W 6.9 mph11.1 kmh 29.49 in998.6 mb - 0.00 in0.0 mm 0.07 in1.8 mm
06:57 AM 38.8°F3.8°C 32.5°F0.3°C 78% 8.1 mph WSW13.0 kmh WSW 4.9 mph7.9 kmh 29.50 in999.0 mb - 0.00 in0.0 mm 0.07 in1.8 mm
06:52 AM 38.8°F3.8°C 32.9°F0.5°C 79% 8.1 mph W13.0 kmh W 4.0 mph6.4 kmh 29.50 in999.0 mb - 0.00 in0.0 mm 0.07 in1.8 mm
06:47 AM 38.8°F3.8°C 32.9°F0.5°C 79% 6.9 mph E11.1 kmh E 8.1 mph13.0 kmh 29.50 in999.0 mb - 0.00 in0.0 mm 0.07 in1.8 mm
06:42 AM 38.8°F3.8°C 32.9°F0.5°C 79% 8.1 mph W13.0 kmh W 4.0 mph6.4 kmh 29.50 in999.0 mb - 0.00 in0.0 mm 0.07 in1.8 mm
06:37 AM 38.8°F3.8°C 32.9°F0.5°C 79% 6.9 mph W11.1 kmh W 6.0 mph9.7 kmh 29.50 in999.0 mb - 0.00 in0.0 mm 0.07 in1.8 mm
06:32 AM 38.8°F3.8°C 33.4°F0.8°C 81% 6.0 mph WSW9.7 kmh WSW 10.1 mph16.3 kmh 29.51 in999.3 mb - 0.00 in0.0 mm 0.07 in1.8 mm
06:27 AM 39.0°F3.9°C 33.4°F0.8°C 80% 6.9 mph W11.1 kmh W 2.9 mph4.7 kmh 29.50 in999.0 mb - 0.00 in0.0 mm 0.07 in1.8 mm
06:22 AM 39.0°F3.9°C 33.4°F0.8°C 80% 6.9 mph W11.1 kmh W 8.9 mph14.3 kmh 29.50 in999.0 mb - 0.00 in0.0 mm 0.07 in1.8 mm
06:17 AM 39.0°F3.9°C 33.4°F0.8°C 80% 6.0 mph WSW9.7 kmh WSW 8.9 mph14.3 kmh 29.50 in999.0 mb - 0.00 in0.0 mm 0.07 in1.8 mm
06:12 AM 39.4°F4.1°C 33.1°F0.6°C 78% 8.1 mph W13.0 kmh W 4.0 mph6.4 kmh 29.50 in999.0 mb - 0.00 in0.0 mm 0.07 in1.8 mm
06:07 AM 39.6°F4.2°C 33.3°F0.7°C 78% 8.9 mph WSW14.3 kmh WSW 10.1 mph16.3 kmh 29.51 in999.3 mb - 0.00 in0.0 mm 0.07 in1.8 mm
06:02 AM 39.6°F4.2°C 32.9°F0.5°C 77% 10.1 mph W16.3 kmh W 11.0 mph17.7 kmh 29.51 in999.3 mb - 0.00 in0.0 mm 0.07 in1.8 mm
05:57 AM 39.6°F4.2°C 32.9°F0.5°C 77% 10.1 mph W16.3 kmh W 11.0 mph17.7 kmh 29.51 in999.3 mb - 0.00 in0.0 mm 0.07 in1.8 mm
05:52 AM 39.4°F4.1°C 33.1°F0.6°C 78% 8.9 mph WSW14.3 kmh WSW 13.0 mph20.9 kmh 29.51 in999.3 mb - 0.00 in0.0 mm 0.07 in1.8 mm
05:47 AM 39.4°F4.1°C 32.7°F0.4°C 77% 10.1 mph WSW16.3 kmh WSW 8.9 mph14.3 kmh 29.50 in999.0 mb - 0.00 in0.0 mm 0.07 in1.8 mm
05:42 AM 39.4°F4.1°C 32.7°F0.4°C 77% 12.1 mph WSW19.5 kmh WSW 6.9 mph11.1 kmh 29.50 in999.0 mb - 0.00 in0.0 mm 0.07 in1.8 mm
05:37 AM 39.4°F4.1°C 33.4°F0.8°C 79% 8.9 mph WSW14.3 kmh WSW 6.9 mph11.1 kmh 29.50 in999.0 mb - 0.00 in0.0 mm 0.07 in1.8 mm
05:32 AM 39.0°F3.9°C 33.6°F0.9°C 81% 6.0 mph WNW9.7 kmh WNW 8.9 mph14.3 kmh 29.49 in998.6 mb - 0.00 in0.0 mm 0.07 in1.8 mm
05:27 AM 39.0°F3.9°C 34.0°F1.1°C 82% 6.0 mph WNW9.7 kmh WNW 8.9 mph14.3 kmh 29.50 in999.0 mb - 0.00 in0.0 mm 0.07 in1.8 mm
05:22 AM 39.0°F3.9°C 34.0°F1.1°C 82% 6.9 mph WSW11.1 kmh WSW 4.0 mph6.4 kmh 29.49 in998.6 mb - 0.00 in0.0 mm 0.07 in1.8 mm
05:17 AM 38.8°F3.8°C 33.8°F1.0°C 82% 6.9 mph SW11.1 kmh SW 6.9 mph11.1 kmh 29.50 in999.0 mb - 0.00 in0.0 mm 0.07 in1.8 mm
05:12 AM 38.8°F3.8°C 34.2°F1.2°C 83% 6.0 mph W9.7 kmh W 10.1 mph16.3 kmh 29.50 in999.0 mb - 0.00 in0.0 mm 0.07 in1.8 mm
05:07 AM 38.8°F3.8°C 33.8°F1.0°C 82% 6.0 mph SSW9.7 kmh SSW 6.0 mph9.7 kmh 29.49 in998.6 mb - 0.00 in0.0 mm 0.07 in1.8 mm
05:02 AM 39.0°F3.9°C 33.6°F0.9°C 81% 6.9 mph WNW11.1 kmh WNW 6.9 mph11.1 kmh 29.49 in998.6 mb - 0.00 in0.0 mm 0.07 in1.8 mm
04:57 AM 39.0°F3.9°C 33.4°F0.8°C 80% 6.9 mph SW11.1 kmh SW 10.1 mph16.3 kmh 29.49 in998.6 mb - 0.00 in0.0 mm 0.07 in1.8 mm
04:52 AM 39.0°F3.9°C 33.4°F0.8°C 80% 8.1 mph W13.0 kmh W 8.9 mph14.3 kmh 29.50 in999.0 mb - 0.00 in0.0 mm 0.07 in1.8 mm
04:47 AM 39.4°F4.1°C 33.4°F0.8°C 79% 8.9 mph WSW14.3 kmh WSW 8.1 mph13.0 kmh 29.49 in998.6 mb - 0.00 in0.0 mm 0.07 in1.8 mm
04:42 AM 39.4°F4.1°C 33.4°F0.8°C 79% 8.9 mph W14.3 kmh W 10.1 mph16.3 kmh 29.49 in998.6 mb - 0.00 in0.0 mm 0.07 in1.8 mm
04:37 AM 39.6°F4.2°C 34.0°F1.1°C 80% 11.0 mph W17.7 kmh W 6.0 mph9.7 kmh 29.50 in999.0 mb - 0.00 in0.0 mm 0.07 in1.8 mm
04:32 AM 39.6°F4.2°C 34.0°F1.1°C 80% 10.1 mph W16.3 kmh W 10.1 mph16.3 kmh 29.50 in999.0 mb - 0.00 in0.0 mm 0.07 in1.8 mm
04:27 AM 39.4°F4.1°C 33.8°F1.0°C 80% 8.9 mph WSW14.3 kmh WSW 13.0 mph20.9 kmh 29.50 in999.0 mb - 0.00 in0.0 mm 0.07 in1.8 mm
04:22 AM 39.4°F4.1°C 33.8°F1.0°C 80% 10.1 mph WNW16.3 kmh WNW 4.9 mph7.9 kmh 29.50 in999.0 mb - 0.00 in0.0 mm 0.07 in1.8 mm
04:17 AM 39.4°F4.1°C 33.4°F0.8°C 79% 10.1 mph WNW16.3 kmh WNW 8.9 mph14.3 kmh 29.50 in999.0 mb - 0.00 in0.0 mm 0.07 in1.8 mm
04:12 AM 39.4°F4.1°C 33.8°F1.0°C 80% 8.9 mph WSW14.3 kmh WSW 8.9 mph14.3 kmh 29.49 in998.6 mb - 0.00 in0.0 mm 0.07 in1.8 mm
04:07 AM 39.4°F4.1°C 34.0°F1.1°C 81% 10.1 mph W16.3 kmh W 8.9 mph14.3 kmh 29.49 in998.6 mb - 0.00 in0.0 mm 0.07 in1.8 mm
04:02 AM 39.4°F4.1°C 33.8°F1.0°C 80% 11.0 mph W17.7 kmh W 8.1 mph13.0 kmh 29.49 in998.6 mb - 0.00 in0.0 mm 0.07 in1.8 mm
03:57 AM 39.4°F4.1°C 34.0°F1.1°C 81% 11.0 mph WSW17.7 kmh WSW 12.1 mph19.5 kmh 29.49 in998.6 mb - 0.00 in0.0 mm 0.07 in1.8 mm
03:52 AM 39.4°F4.1°C 34.0°F1.1°C 81% 11.0 mph WNW17.7 kmh WNW 12.1 mph19.5 kmh 29.49 in998.6 mb - 0.00 in0.0 mm 0.07 in1.8 mm
03:47 AM 39.2°F4.0°C 34.5°F1.4°C 83% 10.1 mph SW16.3 kmh SW 10.1 mph16.3 kmh 29.49 in998.6 mb - 0.00 in0.0 mm 0.07 in1.8 mm
03:42 AM 39.2°F4.0°C 34.5°F1.4°C 83% 10.1 mph W16.3 kmh W 6.9 mph11.1 kmh 29.49 in998.6 mb - 0.00 in0.0 mm 0.07 in1.8 mm
03:37 AM 39.4°F4.1°C 34.3°F1.3°C 82% 10.1 mph W16.3 kmh W 8.1 mph13.0 kmh 29.49 in998.6 mb - 0.00 in0.0 mm 0.07 in1.8 mm
03:32 AM 39.4°F4.1°C 34.3°F1.3°C 82% 11.0 mph W17.7 kmh W 8.1 mph13.0 kmh 29.49 in998.6 mb - 0.00 in0.0 mm 0.07 in1.8 mm
03:27 AM 39.2°F4.0°C 34.2°F1.2°C 82% 11.0 mph WSW17.7 kmh WSW 10.1 mph16.3 kmh 29.49 in998.6 mb - 0.00 in0.0 mm 0.07 in1.8 mm
03:22 AM 39.0°F3.9°C 34.5°F1.4°C 84% 11.0 mph WSW17.7 kmh WSW 17.9 mph28.8 kmh 29.49 in998.6 mb - 0.00 in0.0 mm 0.07 in1.8 mm
03:17 AM 39.0°F3.9°C 34.5°F1.4°C 84% 11.0 mph W17.7 kmh W 6.0 mph9.7 kmh 29.49 in998.6 mb - 0.00 in0.0 mm 0.07 in1.8 mm
03:12 AM 39.0°F3.9°C 34.9°F1.6°C 85% 11.0 mph W17.7 kmh W 15.0 mph24.1 kmh 29.49 in998.6 mb - 0.00 in0.0 mm 0.07 in1.8 mm
03:07 AM 38.8°F3.8°C 34.7°F1.5°C 85% 11.0 mph WSW17.7 kmh WSW 12.1 mph19.5 kmh 29.49 in998.6 mb - 0.00 in0.0 mm 0.07 in1.8 mm
03:02 AM 39.0°F3.9°C 34.9°F1.6°C 85% 11.0 mph WSW17.7 kmh WSW 6.9 mph11.1 kmh 29.49 in998.6 mb - 0.00 in0.0 mm 0.07 in1.8 mm
02:57 AM 38.8°F3.8°C 34.7°F1.5°C 85% 10.1 mph W16.3 kmh W 10.1 mph16.3 kmh 29.49 in998.6 mb - 0.00 in0.0 mm 0.07 in1.8 mm
02:52 AM 38.8°F3.8°C 35.1°F1.7°C 86% 10.1 mph W16.3 kmh W 6.0 mph9.7 kmh 29.49 in998.6 mb - 0.00 in0.0 mm 0.07 in1.8 mm
02:47 AM 38.7°F3.7°C 34.9°F1.6°C 86% 10.1 mph W16.3 kmh W 8.1 mph13.0 kmh 29.49 in998.6 mb - 0.00 in0.0 mm 0.07 in1.8 mm
02:42 AM 38.7°F3.7°C 34.9°F1.6°C 86% 10.1 mph W16.3 kmh W 6.9 mph11.1 kmh 29.49 in998.6 mb - 0.00 in0.0 mm 0.07 in1.8 mm
02:37 AM 38.7°F3.7°C 34.9°F1.6°C 86% 10.1 mph WNW16.3 kmh WNW 10.1 mph16.3 kmh 29.49 in998.6 mb - 0.00 in0.0 mm 0.07 in1.8 mm
02:32 AM 38.7°F3.7°C 34.9°F1.6°C 86% 10.1 mph SW16.3 kmh SW 10.1 mph16.3 kmh 29.49 in998.6 mb - 0.00 in0.0 mm 0.07 in1.8 mm
02:27 AM 38.7°F3.7°C 35.1°F1.7°C 87% 10.1 mph WNW16.3 kmh WNW 8.1 mph13.0 kmh 29.48 in998.3 mb - 0.00 in0.0 mm 0.07 in1.8 mm
02:22 AM 38.7°F3.7°C 35.4°F1.9°C 88% 8.9 mph WNW14.3 kmh WNW 2.0 mph3.2 kmh 29.49 in998.6 mb - 0.00 in0.0 mm 0.07 in1.8 mm
02:17 AM 38.5°F3.6°C 35.6°F2.0°C 89% 8.1 mph WSW13.0 kmh WSW 15.0 mph24.1 kmh 29.49 in998.6 mb - 0.00 in0.0 mm 0.07 in1.8 mm
02:12 AM 38.1°F3.4°C 35.2°F1.8°C 89% 6.9 mph WNW11.1 kmh WNW 2.9 mph4.7 kmh 29.49 in998.6 mb - 0.00 in0.0 mm 0.07 in1.8 mm
02:07 AM 37.9°F3.3°C 35.2°F1.8°C 90% 4.9 mph W7.9 kmh W 6.0 mph9.7 kmh 29.48 in998.3 mb - 0.00 in0.0 mm 0.07 in1.8 mm
02:02 AM 37.9°F3.3°C 35.2°F1.8°C 90% 4.9 mph WNW7.9 kmh WNW 4.9 mph7.9 kmh 29.48 in998.3 mb - 0.00 in0.0 mm 0.07 in1.8 mm
01:57 AM 38.1°F3.4°C 35.4°F1.9°C 90% 6.0 mph W9.7 kmh W 4.0 mph6.4 kmh 29.48 in998.3 mb - 0.00 in0.0 mm 0.07 in1.8 mm
01:52 AM 38.1°F3.4°C 35.4°F1.9°C 90% 6.0 mph WSW9.7 kmh WSW 6.0 mph9.7 kmh 29.49 in998.6 mb - 0.03 in0.8 mm 0.07 in1.8 mm
01:47 AM 38.3°F3.5°C 35.4°F1.9°C 89% 6.0 mph WSW9.7 kmh WSW 6.9 mph11.1 kmh 29.49 in998.6 mb - 0.03 in0.8 mm 0.07 in1.8 mm
01:42 AM 38.3°F3.5°C 35.4°F1.9°C 89% 6.9 mph W11.1 kmh W 11.0 mph17.7 kmh 29.49 in998.6 mb - 0.03 in0.8 mm 0.06 in1.5 mm
01:37 AM 38.3°F3.5°C 35.4°F1.9°C 89% 6.9 mph NW11.1 kmh NW 13.0 mph20.9 kmh 29.48 in998.3 mb - 0.03 in0.8 mm 0.06 in1.5 mm
01:32 AM 38.3°F3.5°C 35.6°F2.0°C 90% 6.0 mph NW9.7 kmh NW 6.9 mph11.1 kmh 29.49 in998.6 mb - 0.04 in1.0 mm 0.06 in1.5 mm
01:27 AM 38.3°F3.5°C 35.6°F2.0°C 90% 6.0 mph WSW9.7 kmh WSW 4.9 mph7.9 kmh 29.49 in998.6 mb - 0.08 in2.0 mm 0.06 in1.5 mm
01:22 AM 38.5°F3.6°C 35.6°F2.0°C 89% 6.0 mph W9.7 kmh W 4.0 mph6.4 kmh 29.49 in998.6 mb - 0.09 in2.3 mm 0.06 in1.5 mm
01:17 AM 38.7°F3.7°C 35.8°F2.1°C 89% 6.0 mph W9.7 kmh W 6.0 mph9.7 kmh 29.48 in998.3 mb - 0.11 in2.8 mm 0.05 in1.3 mm
01:12 AM 39.0°F3.9°C 36.1°F2.3°C 89% 6.9 mph W11.1 kmh W 2.9 mph4.7 kmh 29.48 in998.3 mb - 0.16 in4.1 mm 0.04 in1.0 mm
01:07 AM 39.4°F4.1°C 36.1°F2.3°C 88% 8.1 mph WNW13.0 kmh WNW 8.1 mph13.0 kmh 29.49 in998.6 mb - 0.10 in2.5 mm 0.03 in0.8 mm
01:02 AM 39.6°F4.2°C 36.3°F2.4°C 88% 6.9 mph WSW11.1 kmh WSW 13.0 mph20.9 kmh 29.49 in998.6 mb - 0.06 in1.5 mm 0.02 in0.5 mm
12:57 AM 39.7°F4.3°C 36.1°F2.3°C 87% 6.9 mph W11.1 kmh W 10.1 mph16.3 kmh 29.48 in998.3 mb - 0.04 in1.0 mm 0.02 in0.5 mm
12:52 AM 40.1°F4.5°C 36.5°F2.5°C 87% 6.0 mph W9.7 kmh W 2.9 mph4.7 kmh 29.48 in998.3 mb - 0.04 in1.0 mm 0.01 in0.3 mm
12:47 AM 40.3°F4.6°C 36.5°F2.5°C 86% 6.9 mph W11.1 kmh W 6.9 mph11.1 kmh 29.48 in998.3 mb - 0.00 in0.0 mm 0.01 in0.3 mm
12:42 AM 40.6°F4.8°C 36.9°F2.7°C 86% 6.9 mph W11.1 kmh W 6.0 mph9.7 kmh 29.49 in998.6 mb - 0.00 in0.0 mm 0.00 in0.0 mm
12:37 AM 40.8°F4.9°C 36.7°F2.6°C 85% 6.0 mph WNW9.7 kmh WNW 8.9 mph14.3 kmh 29.48 in998.3 mb - 0.00 in0.0 mm 0.00 in0.0 mm
12:32 AM 40.8°F4.9°C 36.7°F2.6°C 85% 4.9 mph NW7.9 kmh NW 8.9 mph14.3 kmh 29.48 in998.3 mb - 0.00 in0.0 mm 0.00 in0.0 mm
12:27 AM 40.8°F4.9°C 36.7°F2.6°C 85% 4.0 mph WNW6.4 kmh WNW 2.9 mph4.7 kmh 29.48 in998.3 mb - 0.00 in0.0 mm 0.00 in0.0 mm
12:22 AM 40.6°F4.8°C 36.5°F2.5°C 85% 4.0 mph WNW6.4 kmh WNW 2.9 mph4.7 kmh 29.48 in998.3 mb - 0.00 in0.0 mm 0.00 in0.0 mm
12:17 AM 40.6°F4.8°C 36.5°F2.5°C 85% 4.0 mph WNW6.4 kmh WNW 4.9 mph7.9 kmh 29.49 in998.6 mb - 0.00 in0.0 mm 0.00 in0.0 mm
12:12 AM 40.6°F4.8°C 36.5°F2.5°C 85% 4.9 mph W7.9 kmh W 2.9 mph4.7 kmh 29.48 in998.3 mb - 0.00 in0.0 mm 0.00 in0.0 mm
12:07 AM 40.6°F4.8°C 36.5°F2.5°C 85% 6.0 mph WNW9.7 kmh WNW 4.0 mph6.4 kmh 29.49 in998.6 mb - 0.00 in0.0 mm 0.00 in0.0 mm
12:02 AM 40.5°F4.7°C 36.3°F2.4°C 85% 6.0 mph W9.7 kmh W 6.0 mph9.7 kmh 29.49 in998.6 mb - 0.00 in0.0 mm 0.24 in6.1 mm